createdAt,value
2023-02-26T00:00:01.617Z,101527.53
2023-02-26T00:02:28.093Z,101540.13
2023-02-26T00:04:54.502Z,101539.13
2023-02-26T00:07:21.084Z,101545.50
2023-02-26T00:09:47.467Z,101562.81
2023-02-26T00:12:13.865Z,101564.78
2023-02-26T00:14:40.850Z,101562.25
2023-02-26T00:17:20.169Z,101568.53
2023-02-26T00:19:46.768Z,101562.38
2023-02-26T00:22:13.396Z,101574.06
2023-02-26T00:24:39.825Z,101576.84
2023-02-26T00:27:06.353Z,101576.53
2023-02-26T00:29:33.253Z,101578.97
2023-02-26T00:31:59.907Z,101586.00
2023-02-26T00:34:26.742Z,101582.47
2023-02-26T00:37:09.403Z,101583.63
2023-02-26T00:39:48.239Z,101591.25
2023-02-26T00:42:15.298Z,101579.41
2023-02-26T00:44:41.950Z,101590.16
2023-02-26T00:47:30.781Z,101584.03
2023-02-26T00:50:16.750Z,101598.31
2023-02-26T00:52:49.131Z,101610.38
2023-02-26T00:55:15.796Z,101608.19
2023-02-26T00:57:42.526Z,101604.53
2023-02-26T01:00:09.849Z,101609.03
2023-02-26T01:02:37.623Z,101609.50
2023-02-26T01:05:04.597Z,101605.50
2023-02-26T01:07:37.616Z,101620.41
2023-02-26T01:10:04.691Z,101605.19
2023-02-26T01:12:31.259Z,101612.50
2023-02-26T01:14:57.825Z,101615.13
2023-02-26T01:17:39.814Z,101618.88
2023-02-26T01:20:27.323Z,101610.03
2023-02-26T01:23:03.637Z,101616.09
2023-02-26T01:25:43.056Z,101620.47
2023-02-26T01:28:09.921Z,101626.75
2023-02-26T01:30:36.783Z,101633.53
2023-02-26T01:33:25.075Z,101631.47
2023-02-26T01:36:24.293Z,101621.13
2023-02-26T01:39:01.358Z,101635.91
2023-02-26T01:41:31.887Z,101642.00
2023-02-26T01:44:27.124Z,101638.78
2023-02-26T01:47:04.935Z,101641.78
2023-02-26T01:49:32.321Z,101648.47
2023-02-26T01:52:00.976Z,101651.53
2023-02-26T01:54:38.293Z,101647.56
2023-02-26T01:57:15.306Z,101651.88
2023-02-26T01:59:46.932Z,101647.88
2023-02-26T02:02:17.031Z,101650.84
2023-02-26T02:04:44.213Z,101655.31
2023-02-26T02:07:10.778Z,101651.47
2023-02-26T02:09:37.360Z,101668.47
2023-02-26T02:12:15.813Z,101681.34
2023-02-26T02:15:07.189Z,101688.66
2023-02-26T02:17:58.213Z,101696.19
2023-02-26T02:20:43.204Z,101691.38
2023-02-26T02:23:21.695Z,101694.63
2023-02-26T02:26:16.133Z,101701.25
2023-02-26T02:29:09.338Z,101704.69
2023-02-26T02:32:09.804Z,101703.91
2023-02-26T02:34:53.210Z,101716.94
2023-02-26T02:37:28.062Z,101709.44
2023-02-26T02:40:01.813Z,101716.50
2023-02-26T02:42:49.974Z,101726.31
2023-02-26T02:45:20.433Z,101718.75
2023-02-26T02:47:50.513Z,101726.88
2023-02-26T02:50:26.371Z,101723.75
2023-02-26T02:52:57.955Z,101728.53
2023-02-26T02:55:30.878Z,101734.22
2023-02-26T02:58:29.057Z,101744.03
2023-02-26T03:00:58.853Z,101737.41
2023-02-26T03:03:35.745Z,101753.97
2023-02-26T03:06:02.567Z,101745.84
2023-02-26T03:08:33.342Z,101749.03
2023-02-26T03:10:59.993Z,101759.47
2023-02-26T03:13:27.150Z,101754.47
2023-02-26T03:16:31.200Z,101752.53
2023-02-26T03:19:16.362Z,101760.38
2023-02-26T03:21:50.515Z,101760.78
2023-02-26T03:24:29.374Z,101766.66
2023-02-26T03:27:10.501Z,101782.81
2023-02-26T03:29:56.196Z,101773.97
2023-02-26T03:32:28.576Z,101772.41
2023-02-26T03:35:19.114Z,101774.38
2023-02-26T03:37:50.925Z,101781.16
2023-02-26T03:40:26.348Z,101797.84
2023-02-26T03:42:57.051Z,101796.28
2023-02-26T03:45:34.651Z,101796.25
2023-02-26T03:48:03.493Z,101799.72
2023-02-26T03:50:33.310Z,101796.69
2023-02-26T03:53:02.353Z,101810.78
2023-02-26T03:55:33.256Z,101820.22
2023-02-26T03:57:59.786Z,101819.72
2023-02-26T04:00:27.749Z,101819.66
2023-02-26T04:03:13.621Z,101825.03
2023-02-26T04:05:42.462Z,101830.16
2023-02-26T04:08:09.061Z,101832.66
2023-02-26T04:10:40.273Z,101837.72
2023-02-26T04:13:07.473Z,101837.59
2023-02-26T04:15:33.939Z,101840.63
2023-02-26T04:18:00.460Z,101852.88
2023-02-26T04:20:26.885Z,101849.28
2023-02-26T04:22:53.648Z,101860.06
2023-02-26T04:25:20.055Z,101852.88
2023-02-26T04:27:46.423Z,101858.13
2023-02-26T04:30:13.031Z,101868.34
2023-02-26T04:32:39.636Z,101872.38
2023-02-26T04:35:06.132Z,101857.16
2023-02-26T04:37:32.509Z,101872.53
2023-02-26T04:39:58.896Z,101873.91
2023-02-26T04:42:25.311Z,101877.78
2023-02-26T04:44:51.788Z,101889.53
2023-02-26T04:47:18.186Z,101877.31
2023-02-26T04:49:44.533Z,101883.47
2023-02-26T04:52:11.106Z,101887.66
2023-02-26T04:54:37.994Z,101893.22
2023-02-26T04:57:04.493Z,101880.59
2023-02-26T04:59:30.949Z,101888.41
2023-02-26T05:01:57.480Z,101892.25
2023-02-26T05:04:24.157Z,101903.69
2023-02-26T05:06:50.947Z,101904.31
2023-02-26T05:09:17.653Z,101896.91
2023-02-26T05:11:44.061Z,101903.41
2023-02-26T05:14:10.470Z,101910.50
2023-02-26T05:16:37.116Z,101916.84
2023-02-26T05:19:03.506Z,101911.31
2023-02-26T05:21:30.131Z,101911.75
2023-02-26T05:23:56.697Z,101919.31
2023-02-26T05:26:23.460Z,101928.75
2023-02-26T05:28:50.046Z,101934.31
2023-02-26T05:31:16.543Z,101930.59
2023-02-26T05:33:43.251Z,101937.25
2023-02-26T05:36:09.980Z,101934.16
2023-02-26T05:38:36.672Z,101938.56
2023-02-26T05:41:03.585Z,101944.44
2023-02-26T05:43:30.628Z,101944.16
2023-02-26T05:45:57.139Z,101947.56
2023-02-26T05:48:23.801Z,101947.22
2023-02-26T05:50:50.581Z,101953.34
2023-02-26T05:53:17.333Z,101951.94
2023-02-26T05:55:43.789Z,101961.66
2023-02-26T05:58:10.538Z,101964.88
2023-02-26T06:00:37.475Z,101964.09
2023-02-26T06:03:03.904Z,101968.28
2023-02-26T06:05:30.311Z,101967.97
2023-02-26T06:07:56.703Z,101985.28
2023-02-26T06:10:23.080Z,101989.78
2023-02-26T06:12:49.451Z,101989.97
2023-02-26T06:15:15.864Z,101997.97
2023-02-26T06:17:42.259Z,101999.81
2023-02-26T06:20:09.531Z,102000.44
2023-02-26T06:22:36.222Z,102004.78
2023-02-26T06:25:02.766Z,102014.19
2023-02-26T06:27:29.204Z,102012.66
2023-02-26T06:29:55.628Z,102004.50
2023-02-26T06:32:22.318Z,102014.81
2023-02-26T06:34:48.799Z,102007.97
2023-02-26T06:37:15.349Z,102014.44
2023-02-26T06:39:41.920Z,102023.63
2023-02-26T06:42:08.634Z,102015.09
2023-02-26T06:44:35.037Z,102025.16
2023-02-26T06:47:01.524Z,102032.84
2023-02-26T06:49:27.908Z,102038.00
2023-02-26T06:51:54.285Z,102035.38
2023-02-26T06:54:20.706Z,102036.34
2023-02-26T06:56:47.388Z,102044.88
2023-02-26T06:59:15.261Z,102052.50
2023-02-26T07:01:41.683Z,102052.78
2023-02-26T07:04:08.179Z,102045.78
2023-02-26T07:06:34.779Z,102051.84
2023-02-26T07:09:01.235Z,102057.13
2023-02-26T07:11:27.696Z,102061.72
2023-02-26T07:13:55.631Z,102071.19
2023-02-26T07:16:22.647Z,102069.03
2023-02-26T07:18:49.112Z,102075.97
2023-02-26T07:21:15.524Z,102091.78
2023-02-26T07:23:41.910Z,102083.22
2023-02-26T07:26:08.927Z,102094.84
2023-02-26T07:28:35.642Z,102106.13
2023-02-26T07:31:02.226Z,102103.94
2023-02-26T07:33:28.922Z,102103.06
2023-02-26T07:35:55.353Z,102113.91
2023-02-26T07:38:22.500Z,102109.91
2023-02-26T07:40:49.154Z,102120.66
2023-02-26T07:43:15.661Z,102122.41
2023-02-26T07:45:42.057Z,102125.25
2023-02-26T07:48:08.772Z,102128.03
2023-02-26T07:50:35.364Z,102123.59
2023-02-26T07:53:01.770Z,102136.75
2023-02-26T07:55:28.465Z,102135.69
2023-02-26T07:57:54.879Z,102143.47
2023-02-26T08:00:21.722Z,102131.44
2023-02-26T08:02:48.282Z,102132.53
2023-02-26T08:05:14.692Z,102140.81
2023-02-26T08:07:41.137Z,102133.09
2023-02-26T08:10:08.098Z,102141.31
2023-02-26T08:12:34.625Z,102155.19
2023-02-26T08:15:01.004Z,102159.84
2023-02-26T08:17:27.737Z,102157.41
2023-02-26T08:19:54.285Z,102157.09
2023-02-26T08:22:21.197Z,102154.28
2023-02-26T08:24:47.591Z,102166.13
2023-02-26T08:27:13.998Z,102167.38
2023-02-26T08:29:40.417Z,102172.63
2023-02-26T08:32:06.947Z,102176.03
2023-02-26T08:34:33.495Z,102190.94
2023-02-26T08:37:02.286Z,102187.25
2023-02-26T08:39:28.854Z,102178.78
2023-02-26T08:41:55.626Z,102192.03
2023-02-26T08:44:22.371Z,102208.47
2023-02-26T08:46:49.545Z,102203.72
2023-02-26T08:49:16.001Z,102203.63
2023-02-26T08:51:42.433Z,102218.59
2023-02-26T08:54:09.758Z,102230.38
2023-02-26T08:56:36.188Z,102215.56
2023-02-26T08:59:02.635Z,102221.28
2023-02-26T09:01:29.407Z,102230.84
2023-02-26T09:03:56.097Z,102242.31
2023-02-26T09:06:22.481Z,102236.47
2023-02-26T09:08:49.380Z,102245.38
2023-02-26T09:11:15.771Z,102242.31
2023-02-26T09:13:42.771Z,102249.41
2023-02-26T09:16:09.225Z,102241.56
2023-02-26T09:18:35.799Z,102248.28
2023-02-26T09:21:03.070Z,102256.22
2023-02-26T09:23:29.629Z,102263.84
2023-02-26T09:25:57.456Z,102260.69
2023-02-26T09:28:26.578Z,102262.34
2023-02-26T09:30:54.795Z,102261.31
2023-02-26T09:33:21.951Z,102270.53
2023-02-26T09:35:49.815Z,102299.72
2023-02-26T09:38:16.792Z,102281.88
2023-02-26T09:41:07.192Z,102277.84
2023-02-26T09:43:52.703Z,102271.91
2023-02-26T09:46:28.825Z,102292.38
2023-02-26T09:49:17.963Z,102284.22
2023-02-26T09:51:47.658Z,102299.13
2023-02-26T09:54:34.326Z,102291.91
2023-02-26T09:57:01.188Z,102287.94
2023-02-26T09:59:31.916Z,102298.09
2023-02-26T10:02:24.200Z,102295.88
2023-02-26T10:05:21.601Z,102302.97
2023-02-26T10:07:58.249Z,102303.88
2023-02-26T10:10:49.989Z,102302.09
2023-02-26T10:13:24.089Z,102315.06
2023-02-26T10:15:50.649Z,102311.53
2023-02-26T10:18:22.206Z,102316.06
2023-02-26T10:20:58.784Z,102331.03
2023-02-26T10:23:32.364Z,102336.03
2023-02-26T10:26:04.638Z,102317.75
2023-02-26T10:28:57.345Z,102332.50
2023-02-26T10:31:29.715Z,102339.22
2023-02-26T10:34:17.442Z,102351.78
2023-02-26T10:36:52.218Z,102335.81
2023-02-26T10:39:29.224Z,102342.31
2023-02-26T10:41:59.188Z,102348.38
2023-02-26T10:44:33.531Z,102345.28
2023-02-26T10:47:16.186Z,102376.75
2023-02-26T10:49:52.597Z,102353.53
2023-02-26T10:52:27.535Z,102358.72
2023-02-26T10:55:03.899Z,102355.34
2023-02-26T10:57:35.345Z,102350.59
2023-02-26T11:00:02.951Z,102354.13
2023-02-26T11:02:38.450Z,102360.25
2023-02-26T11:05:08.199Z,102376.56
2023-02-26T11:07:37.218Z,102364.00
2023-02-26T11:10:04.149Z,102353.78
2023-02-26T11:12:32.304Z,102374.84
2023-02-26T11:15:00.977Z,102363.00
2023-02-26T11:17:31.366Z,102359.25
2023-02-26T11:20:05.466Z,102358.63
2023-02-26T11:22:36.077Z,102366.16
2023-02-26T11:25:03.542Z,102359.78
2023-02-26T11:27:36.626Z,102370.44
2023-02-26T11:30:25.998Z,102380.34
2023-02-26T11:32:54.412Z,102373.72
2023-02-26T11:35:24.113Z,102370.72
2023-02-26T11:37:56.223Z,102380.75
2023-02-26T11:40:25.341Z,102374.09
2023-02-26T11:43:08.754Z,102361.75
2023-02-26T11:45:38.002Z,102371.09
2023-02-26T11:48:07.117Z,102371.03
2023-02-26T11:50:44.901Z,102373.81
2023-02-26T11:53:38.300Z,102378.19
2023-02-26T11:56:11.499Z,102370.66
2023-02-26T11:58:39.966Z,102366.66
2023-02-26T12:01:08.015Z,102366.97
2023-02-26T12:03:40.980Z,102369.47
2023-02-26T12:06:21.615Z,102373.13
2023-02-26T12:08:48.175Z,102352.94
2023-02-26T12:11:39.744Z,102355.22
2023-02-26T12:14:27.987Z,102353.75
2023-02-26T12:17:14.810Z,102357.41
2023-02-26T12:20:20.596Z,102358.84
2023-02-26T12:22:54.830Z,102360.63
2023-02-26T12:25:42.735Z,102354.13
2023-02-26T12:28:29.848Z,102372.47
2023-02-26T12:31:06.573Z,102373.66
2023-02-26T12:34:01.025Z,102381.28
2023-02-26T12:36:46.478Z,102383.13
2023-02-26T12:39:39.085Z,102364.03
2023-02-26T12:42:18.598Z,102373.09
2023-02-26T12:44:45.034Z,102385.97
2023-02-26T12:47:17.515Z,102368.25
2023-02-26T12:49:47.049Z,102378.22
2023-02-26T12:52:30.617Z,102383.13
2023-02-26T12:55:14.748Z,102372.88
2023-02-26T12:57:50.687Z,102382.47
2023-02-26T13:00:23.402Z,102375.66
2023-02-26T13:03:12.792Z,102378.28
2023-02-26T13:05:42.241Z,102376.91
2023-02-26T13:08:26.873Z,102370.75
2023-02-26T13:11:32.507Z,102369.19
2023-02-26T13:14:21.740Z,102382.84
2023-02-26T13:17:01.572Z,102379.66
2023-02-26T13:19:52.657Z,102358.66
2023-02-26T13:22:27.583Z,102364.34
2023-02-26T13:25:04.395Z,102382.84
2023-02-26T13:27:34.492Z,102385.06
2023-02-26T13:30:07.511Z,102382.84
2023-02-26T13:32:36.026Z,102362.47
2023-02-26T13:35:35.266Z,102384.97
2023-02-26T13:38:03.280Z,102350.59
2023-02-26T13:40:36.341Z,102368.13
2023-02-26T13:43:15.518Z,102373.06
2023-02-26T13:45:56.061Z,102373.22
2023-02-26T13:48:53.684Z,102369.16
2023-02-26T13:51:31.536Z,102370.34
2023-02-26T13:54:00.282Z,102372.88
2023-02-26T13:56:36.013Z,102375.06
2023-02-26T13:59:14.268Z,102374.41
2023-02-26T14:01:50.238Z,102373.91
2023-02-26T14:04:24.977Z,102382.72
2023-02-26T14:06:56.176Z,102367.94
2023-02-26T14:09:22.625Z,102371.88
2023-02-26T14:12:01.040Z,102383.19
2023-02-26T14:14:33.992Z,102364.50
2023-02-26T14:17:09.463Z,102366.81
2023-02-26T14:19:43.170Z,102353.72
2023-02-26T14:22:31.052Z,102380.09
2023-02-26T14:25:18.731Z,102375.66
2023-02-26T14:27:47.236Z,102375.72
2023-02-26T14:30:32.633Z,102355.44
2023-02-26T14:33:05.858Z,102365.53
2023-02-26T14:35:35.162Z,102365.44
2023-02-26T14:38:33.984Z,102363.28
2023-02-26T14:41:06.088Z,102352.88
2023-02-26T14:43:48.323Z,102382.47
2023-02-26T14:46:14.838Z,102358.53
2023-02-26T14:48:41.756Z,102353.81
2023-02-26T14:51:31.996Z,102361.78
2023-02-26T14:54:46.690Z,102363.81
2023-02-26T14:57:27.610Z,102362.22
2023-02-26T15:00:12.705Z,102372.53
2023-02-26T15:02:39.038Z,102360.72
2023-02-26T15:05:22.459Z,102367.44
2023-02-26T15:07:49.498Z,102364.16
2023-02-26T15:10:31.267Z,102364.44
2023-02-26T15:13:15.546Z,102375.72
2023-02-26T15:15:53.227Z,102369.66
2023-02-26T15:18:39.969Z,102374.84
2023-02-26T15:21:15.609Z,102367.97
2023-02-26T15:23:45.654Z,102362.63
2023-02-26T15:26:25.264Z,102368.00
2023-02-26T15:28:52.356Z,102361.78
2023-02-26T15:31:21.123Z,102368.81
2023-02-26T15:33:50.743Z,102379.06
2023-02-26T15:36:25.565Z,102382.72
2023-02-26T15:38:57.538Z,102383.72
2023-02-26T15:41:25.846Z,102383.16
2023-02-26T15:44:04.943Z,102382.59
2023-02-26T15:46:40.268Z,102383.16
2023-02-26T15:49:26.809Z,102400.38
2023-02-26T15:51:53.486Z,102374.94
2023-02-26T15:54:23.056Z,102389.91
2023-02-26T15:56:49.719Z,102386.47
2023-02-26T15:59:26.816Z,102393.41
2023-02-26T16:01:55.289Z,102390.16
2023-02-26T16:04:23.628Z,102397.78
2023-02-26T16:06:54.937Z,102407.88
2023-02-26T16:09:29.598Z,102380.25
2023-02-26T16:11:58.518Z,102414.09
2023-02-26T16:14:28.376Z,102405.16
2023-02-26T16:16:56.138Z,102417.59
2023-02-26T16:19:41.464Z,102399.03
2023-02-26T16:22:21.314Z,102405.66
2023-02-26T16:24:53.509Z,102409.94
2023-02-26T16:27:21.085Z,102409.44
2023-02-26T16:29:52.004Z,102400.31
2023-02-26T16:32:18.800Z,102412.91
2023-02-26T16:34:54.860Z,102408.00
2023-02-26T16:37:33.291Z,102418.50
2023-02-26T16:40:28.852Z,102420.06
2023-02-26T16:43:06.711Z,102432.66
2023-02-26T16:45:36.505Z,102411.75
2023-02-26T16:48:16.461Z,102429.38
2023-02-26T16:50:43.582Z,102433.13
2023-02-26T16:53:14.732Z,102427.13
2023-02-26T16:55:43.257Z,102447.03
2023-02-26T16:58:14.576Z,102438.00
2023-02-26T17:00:44.756Z,102433.56
2023-02-26T17:03:17.521Z,102431.75
2023-02-26T17:06:02.119Z,102446.19
2023-02-26T17:08:36.474Z,102454.69
2023-02-26T17:11:07.067Z,102452.25
2023-02-26T17:13:34.654Z,102459.94
2023-02-26T17:16:02.767Z,102460.41
2023-02-26T17:18:30.694Z,102463.25
2023-02-26T17:20:58.332Z,102464.44
2023-02-26T17:23:29.559Z,102468.88
2023-02-26T17:25:56.462Z,102474.66
2023-02-26T17:28:26.177Z,102470.44
2023-02-26T17:30:53.016Z,102474.53
2023-02-26T17:33:20.165Z,102487.91
2023-02-26T17:35:47.009Z,102484.81
2023-02-26T17:38:15.510Z,102485.66
2023-02-26T17:40:44.000Z,102483.75
2023-02-26T17:43:10.602Z,102491.84
2023-02-26T17:45:39.114Z,102486.91
2023-02-26T17:48:06.319Z,102490.94
2023-02-26T17:50:48.598Z,102493.06
2023-02-26T17:53:16.793Z,102494.13
2023-02-26T17:55:44.879Z,102501.38
2023-02-26T17:58:28.696Z,102497.84
2023-02-26T18:00:55.576Z,102506.75
2023-02-26T18:03:22.505Z,102510.97
2023-02-26T18:05:49.940Z,102514.03
2023-02-26T18:08:25.927Z,102515.03
2023-02-26T18:10:52.957Z,102512.53
2023-02-26T18:13:19.896Z,102517.06
2023-02-26T18:15:49.122Z,102516.84
2023-02-26T18:18:16.480Z,102514.63
2023-02-26T18:20:44.114Z,102526.28
2023-02-26T18:23:13.645Z,102525.00
2023-02-26T18:25:41.108Z,102532.03
2023-02-26T18:28:13.209Z,102526.22
2023-02-26T18:30:41.536Z,102523.91
2023-02-26T18:33:08.339Z,102526.06
2023-02-26T18:35:34.812Z,102518.22
2023-02-26T18:38:02.557Z,102518.09
2023-02-26T18:40:29.131Z,102520.53
2023-02-26T18:42:55.913Z,102518.69
2023-02-26T18:45:22.289Z,102524.69
2023-02-26T18:47:48.804Z,102530.41
2023-02-26T18:50:17.555Z,102522.91
2023-02-26T18:52:44.809Z,102529.09
2023-02-26T18:55:12.333Z,102536.75
2023-02-26T18:57:40.238Z,102528.31
2023-02-26T19:00:14.624Z,102533.28
2023-02-26T19:02:46.972Z,102537.81
2023-02-26T19:05:13.957Z,102533.91
2023-02-26T19:07:41.302Z,102526.72
2023-02-26T19:10:11.053Z,102526.09
2023-02-26T19:12:37.439Z,102540.59
2023-02-26T19:15:04.581Z,102525.22
2023-02-26T19:17:30.971Z,102535.31
2023-02-26T19:19:58.140Z,102527.63
2023-02-26T19:22:24.550Z,102531.59
2023-02-26T19:24:53.179Z,102535.59
2023-02-26T19:27:19.642Z,102541.53
2023-02-26T19:29:46.729Z,102549.63
2023-02-26T19:32:13.273Z,102538.03
2023-02-26T19:34:39.770Z,102549.88
2023-02-26T19:37:06.158Z,102547.94
2023-02-26T19:39:34.651Z,102541.06
2023-02-26T19:42:01.092Z,102546.41
2023-02-26T19:44:28.031Z,102547.06
2023-02-26T19:46:55.212Z,102542.44
2023-02-26T19:49:23.033Z,102538.03
2023-02-26T19:51:50.931Z,102543.34
2023-02-26T19:54:17.690Z,102550.44
2023-02-26T19:56:44.567Z,102550.94
2023-02-26T19:59:12.316Z,102558.47
2023-02-26T20:01:41.678Z,102558.09
2023-02-26T20:04:10.455Z,102564.97
2023-02-26T20:06:36.963Z,102570.72
2023-02-26T20:09:04.098Z,102567.84
2023-02-26T20:11:30.495Z,102574.47
2023-02-26T20:13:57.152Z,102574.66
2023-02-26T20:16:23.628Z,102583.66
2023-02-26T20:18:50.288Z,102585.78
2023-02-26T20:21:16.672Z,102588.75
2023-02-26T20:23:43.080Z,102589.78
2023-02-26T20:26:12.428Z,102589.94
2023-02-26T20:28:39.644Z,102595.03
2023-02-26T20:31:08.025Z,102601.41
2023-02-26T20:33:36.140Z,102608.88
2023-02-26T20:36:03.053Z,102611.13
2023-02-26T20:38:29.602Z,102606.69
2023-02-26T20:40:56.697Z,102611.22
2023-02-26T20:43:24.921Z,102613.44
2023-02-26T20:45:52.002Z,102616.25
2023-02-26T20:48:18.397Z,102612.09
2023-02-26T20:50:44.838Z,102611.53
2023-02-26T20:53:11.558Z,102616.97
2023-02-26T20:55:38.174Z,102615.09
2023-02-26T20:58:04.950Z,102610.91
2023-02-26T21:00:31.559Z,102613.88
2023-02-26T21:02:58.326Z,102602.81
2023-02-26T21:05:24.906Z,102614.41
2023-02-26T21:07:51.363Z,102622.03
2023-02-26T21:10:19.214Z,102626.47
2023-02-26T21:12:45.768Z,102621.53
2023-02-26T21:15:12.879Z,102624.44
2023-02-26T21:17:40.652Z,102618.22
2023-02-26T21:20:08.738Z,102621.31
2023-02-26T21:22:38.050Z,102627.03
2023-02-26T21:25:06.443Z,102617.81
2023-02-26T21:27:35.262Z,102628.28
2023-02-26T21:30:02.085Z,102625.72
2023-02-26T21:32:28.559Z,102635.16
2023-02-26T21:34:55.645Z,102631.13
2023-02-26T21:37:22.083Z,102633.75
2023-02-26T21:39:48.455Z,102626.97
2023-02-26T21:42:15.483Z,102633.31
2023-02-26T21:44:41.971Z,102632.38
2023-02-26T21:47:08.663Z,102632.22
2023-02-26T21:49:35.325Z,102639.84
2023-02-26T21:52:04.217Z,102638.59
2023-02-26T21:54:30.672Z,102634.28
2023-02-26T21:56:57.491Z,102651.50
2023-02-26T21:59:24.019Z,102639.28
2023-02-26T22:01:51.319Z,102646.38
2023-02-26T22:04:18.606Z,102643.72
2023-02-26T22:06:45.252Z,102650.09
2023-02-26T22:09:12.215Z,102644.09
2023-02-26T22:11:38.637Z,102650.78
2023-02-26T22:14:05.115Z,102640.22
2023-02-26T22:16:31.689Z,102643.31
2023-02-26T22:18:58.119Z,102648.91
2023-02-26T22:21:24.714Z,102651.09
2023-02-26T22:23:51.204Z,102647.50
2023-02-26T22:26:17.858Z,102647.31
2023-02-26T22:28:44.286Z,102652.78
2023-02-26T22:31:10.773Z,102654.91
2023-02-26T22:33:37.223Z,102651.88
2023-02-26T22:36:03.783Z,102653.25
2023-02-26T22:38:30.272Z,102657.56
2023-02-26T22:40:56.692Z,102665.66
2023-02-26T22:43:23.092Z,102662.41
2023-02-26T22:45:50.333Z,102666.94
2023-02-26T22:48:17.909Z,102673.31
2023-02-26T22:50:44.335Z,102672.06
2023-02-26T22:53:10.780Z,102667.09
2023-02-26T22:55:37.202Z,102669.09
2023-02-26T22:58:04.770Z,102674.53
2023-02-26T23:00:31.153Z,102680.28
2023-02-26T23:02:57.574Z,102672.06
2023-02-26T23:05:24.110Z,102679.38
2023-02-26T23:07:50.587Z,102671.00
2023-02-26T23:10:19.008Z,102670.22
2023-02-26T23:12:46.752Z,102671.75
2023-02-26T23:15:14.106Z,102673.66
2023-02-26T23:17:41.337Z,102678.28
2023-02-26T23:20:13.674Z,102670.06
2023-02-26T23:22:41.323Z,102673.00
2023-02-26T23:25:08.200Z,102672.53
2023-02-26T23:27:34.644Z,102671.28
2023-02-26T23:30:01.758Z,102671.91
2023-02-26T23:32:28.256Z,102667.13
2023-02-26T23:34:54.677Z,102667.25
2023-02-26T23:37:21.076Z,102669.28
2023-02-26T23:39:49.270Z,102681.97
2023-02-26T23:42:15.804Z,102670.06
2023-02-26T23:44:42.198Z,102666.66
2023-02-26T23:47:08.863Z,102680.28
2023-02-26T23:49:35.283Z,102691.78
2023-02-26T23:52:01.730Z,102683.69
2023-02-26T23:54:28.229Z,102682.63
2023-02-26T23:56:54.616Z,102686.66
2023-02-26T23:59:21.340Z,102689.78
